createdAt,value
2022-09-16T00:01:33.993Z,16.87
2022-09-16T00:04:04.444Z,11.33
2022-09-16T00:06:34.756Z,11.93
2022-09-16T00:09:07.273Z,14.47
2022-09-16T00:11:37.281Z,14.80
2022-09-16T00:14:08.001Z,10.73
2022-09-16T00:16:38.044Z,12.60
2022-09-16T00:19:08.014Z,11.60
2022-09-16T00:21:38.015Z,13.90
2022-09-16T00:24:14.115Z,13.37
2022-09-16T00:26:44.154Z,14.80
2022-09-16T00:29:14.518Z,14.60
2022-09-16T00:31:44.531Z,13.27
2022-09-16T00:34:14.526Z,14.90
2022-09-16T00:36:44.491Z,14.17
2022-09-16T00:39:17.036Z,13.20
2022-09-16T00:41:47.352Z,15.83
2022-09-16T00:44:57.947Z,14.87
2022-09-16T00:47:35.891Z,16.13
2022-09-16T00:50:12.254Z,14.43
2022-09-16T00:52:43.801Z,15.00
2022-09-16T00:55:21.249Z,15.17
2022-09-16T00:57:52.245Z,13.40
2022-09-16T01:00:22.358Z,16.90
2022-09-16T01:02:54.173Z,16.63
2022-09-16T01:05:28.927Z,12.30
2022-09-16T01:07:59.434Z,14.57
2022-09-16T01:10:32.043Z,12.80
2022-09-16T01:13:07.564Z,13.60
2022-09-16T01:15:48.740Z,14.30
2022-09-16T01:18:34.337Z,13.90
2022-09-16T01:21:25.415Z,13.23
2022-09-16T01:24:52.974Z,13.80
2022-09-16T01:27:54.918Z,14.47
2022-09-16T01:31:02.827Z,11.60
2022-09-16T01:33:45.786Z,14.10
2022-09-16T01:36:40.284Z,16.47
2022-09-16T01:39:26.476Z,15.23
2022-09-16T01:42:18.738Z,13.60
2022-09-16T01:45:01.333Z,16.13
2022-09-16T01:47:41.006Z,19.33
2022-09-16T01:50:22.082Z,12.93
2022-09-16T01:53:04.909Z,16.43
2022-09-16T01:55:43.034Z,22.70
2022-09-16T01:58:23.003Z,16.47
2022-09-16T02:01:02.122Z,16.67
2022-09-16T02:03:42.107Z,15.50
2022-09-16T02:06:20.323Z,18.87
2022-09-16T02:08:57.774Z,14.17
2022-09-16T02:11:28.808Z,18.33
2022-09-16T02:14:08.583Z,14.07
2022-09-16T02:16:43.821Z,15.00
2022-09-16T02:19:23.659Z,17.73
2022-09-16T02:21:59.137Z,15.43
2022-09-16T02:24:34.115Z,20.10
2022-09-16T02:27:09.598Z,15.70
2022-09-16T02:29:47.588Z,14.80
2022-09-16T02:32:20.518Z,16.27
2022-09-16T02:34:55.625Z,18.63
2022-09-16T02:37:33.055Z,16.27
2022-09-16T02:40:08.682Z,17.37
2022-09-16T02:42:38.693Z,15.53
2022-09-16T02:45:11.162Z,15.13
2022-09-16T02:47:54.930Z,15.83
2022-09-16T02:50:37.891Z,16.27
2022-09-16T02:53:27.444Z,15.40
2022-09-16T02:56:06.251Z,18.17
2022-09-16T02:58:37.196Z,16.60
2022-09-16T03:01:07.404Z,16.20
2022-09-16T03:03:37.533Z,17.60
2022-09-16T03:06:23.028Z,17.63
2022-09-16T03:08:55.477Z,19.53
2022-09-16T03:12:20.800Z,18.10
2022-09-16T03:15:33.024Z,18.63
2022-09-16T03:18:26.444Z,15.27
2022-09-16T03:21:06.921Z,15.67
2022-09-16T03:23:50.011Z,19.10
2022-09-16T03:26:36.137Z,16.07
2022-09-16T03:29:19.071Z,16.33
2022-09-16T03:32:00.104Z,16.77
2022-09-16T03:34:38.202Z,20.20
2022-09-16T03:37:12.910Z,15.40
2022-09-16T03:39:50.480Z,16.33
2022-09-16T03:42:20.771Z,14.13
2022-09-16T03:44:51.364Z,20.50
2022-09-16T03:47:21.399Z,17.57
2022-09-16T03:49:51.557Z,16.60
2022-09-16T03:52:21.542Z,13.43
2022-09-16T03:54:54.068Z,16.40
2022-09-16T03:57:24.019Z,18.07
2022-09-16T03:59:54.110Z,16.37
2022-09-16T04:02:24.061Z,15.27
2022-09-16T04:04:54.150Z,17.27
2022-09-16T04:07:24.069Z,20.30
2022-09-16T04:09:56.619Z,13.70
2022-09-16T04:12:26.628Z,14.83
2022-09-16T04:14:56.659Z,18.17
2022-09-16T04:17:27.013Z,20.27
2022-09-16T04:19:56.970Z,19.10
2022-09-16T04:22:26.956Z,19.20
2022-09-16T04:24:59.574Z,15.27
2022-09-16T04:27:29.599Z,18.73
2022-09-16T04:29:59.511Z,17.47
2022-09-16T04:32:29.418Z,22.73
2022-09-16T04:34:59.469Z,18.90
2022-09-16T04:37:32.184Z,17.87
2022-09-16T04:40:05.475Z,18.53
2022-09-16T04:42:35.434Z,17.60
2022-09-16T04:45:05.397Z,24.50
2022-09-16T04:47:35.365Z,23.07
2022-09-16T04:50:05.307Z,21.87
2022-09-16T04:52:35.261Z,18.93
2022-09-16T04:55:09.353Z,22.00
2022-09-16T04:57:39.243Z,23.73
2022-09-16T05:00:12.509Z,20.93
2022-09-16T05:02:42.446Z,20.87
2022-09-16T05:05:12.839Z,17.80
2022-09-16T05:07:42.789Z,20.60
2022-09-16T05:10:15.854Z,19.77
2022-09-16T05:12:49.389Z,21.23
2022-09-16T05:15:19.973Z,27.20
2022-09-16T05:17:51.726Z,20.17
2022-09-16T05:20:21.982Z,19.37
2022-09-16T05:22:53.106Z,18.27
2022-09-16T05:25:25.653Z,23.20
2022-09-16T05:27:55.694Z,22.97
2022-09-16T05:30:26.375Z,19.70
2022-09-16T05:32:57.012Z,18.30
2022-09-16T05:35:27.124Z,24.97
2022-09-16T05:37:57.081Z,22.90
2022-09-16T05:40:30.019Z,19.43
2022-09-16T05:43:00.024Z,21.03
2022-09-16T05:45:32.394Z,17.90
2022-09-16T05:48:02.815Z,20.33
2022-09-16T05:50:32.732Z,19.97
2022-09-16T05:53:02.632Z,25.80
2022-09-16T05:55:35.134Z,27.17
2022-09-16T05:58:05.048Z,26.00
2022-09-16T06:00:35.599Z,29.33
2022-09-16T06:03:05.681Z,22.43
2022-09-16T06:05:35.613Z,22.60
2022-09-16T06:08:05.722Z,23.10
2022-09-16T06:10:41.170Z,23.20
2022-09-16T06:13:11.646Z,22.27
2022-09-16T06:15:41.659Z,20.27
2022-09-16T06:18:15.919Z,14.90
2022-09-16T06:20:45.843Z,17.50
2022-09-16T06:23:15.933Z,19.80
2022-09-16T06:25:48.877Z,18.30
2022-09-16T06:28:19.091Z,14.17
2022-09-16T06:30:49.094Z,15.90
2022-09-16T06:33:19.110Z,21.37
2022-09-16T06:35:49.042Z,21.50
2022-09-16T06:38:19.144Z,17.17
2022-09-16T06:40:51.921Z,18.43
2022-09-16T06:43:21.846Z,21.13
2022-09-16T06:45:51.989Z,19.23
2022-09-16T06:48:22.111Z,20.20
2022-09-16T06:50:52.167Z,16.30
2022-09-16T06:53:22.107Z,19.50
2022-09-16T06:55:54.780Z,15.00
2022-09-16T06:58:24.732Z,13.00
2022-09-16T07:00:55.140Z,15.13
2022-09-16T07:03:25.110Z,14.73
2022-09-16T07:06:03.183Z,14.63
2022-09-16T07:08:34.917Z,12.83
2022-09-16T07:11:10.523Z,11.80
2022-09-16T07:13:40.582Z,16.00
2022-09-16T07:16:17.775Z,18.43
2022-09-16T07:18:49.015Z,19.43
2022-09-16T07:21:24.431Z,13.73
2022-09-16T07:23:58.428Z,13.07
2022-09-16T07:26:33.723Z,10.80
2022-09-16T07:29:06.953Z,18.57
2022-09-16T07:31:40.225Z,9.80
2022-09-16T07:34:13.134Z,11.23
2022-09-16T07:36:45.658Z,12.70
2022-09-16T07:39:18.349Z,13.10
2022-09-16T07:41:51.222Z,11.40
2022-09-16T07:44:22.906Z,13.10
2022-09-16T07:46:53.109Z,10.60
2022-09-16T07:49:23.224Z,16.20
2022-09-16T07:51:53.334Z,10.43
2022-09-16T07:54:23.335Z,13.30
2022-09-16T07:56:55.956Z,12.37
2022-09-16T07:59:25.899Z,13.23
2022-09-16T08:01:55.904Z,14.20
2022-09-16T08:04:25.924Z,15.83
2022-09-16T08:06:55.891Z,15.30
2022-09-16T08:09:37.897Z,17.93
2022-09-16T08:12:12.862Z,15.73
2022-09-16T08:14:42.892Z,11.43
2022-09-16T08:17:12.818Z,9.67
2022-09-16T08:19:42.782Z,13.10
2022-09-16T08:22:12.689Z,16.53
2022-09-16T08:24:42.623Z,18.13
2022-09-16T08:27:15.856Z,13.43
2022-09-16T08:29:45.841Z,14.93
2022-09-16T08:32:15.961Z,10.20
2022-09-16T08:34:45.993Z,15.63
2022-09-16T08:37:15.876Z,11.70
2022-09-16T08:39:45.850Z,8.07
2022-09-16T08:42:40.497Z,9.57
2022-09-16T08:45:23.266Z,11.80
2022-09-16T08:48:10.725Z,8.97
2022-09-16T08:50:45.022Z,11.20
2022-09-16T08:53:24.715Z,9.90
2022-09-16T08:55:55.873Z,9.33
2022-09-16T08:58:36.757Z,8.83
2022-09-16T09:01:18.895Z,11.77
2022-09-16T09:03:51.103Z,8.80
2022-09-16T09:06:46.156Z,11.60
2022-09-16T09:09:34.641Z,13.30
2022-09-16T09:12:15.659Z,13.20
2022-09-16T09:15:07.019Z,13.10
2022-09-16T09:17:55.873Z,14.13
2022-09-16T09:20:47.061Z,13.40
2022-09-16T09:23:36.962Z,13.73
2022-09-16T09:26:16.397Z,11.13
2022-09-16T09:29:22.258Z,10.33
2022-09-16T09:32:07.379Z,12.80
2022-09-16T09:34:55.894Z,12.97
2022-09-16T09:37:46.670Z,10.10
2022-09-16T09:40:25.406Z,11.27
2022-09-16T09:43:07.873Z,10.03
2022-09-16T09:45:43.632Z,10.77
2022-09-16T09:48:25.353Z,10.83
2022-09-16T09:50:58.753Z,10.50
2022-09-16T09:53:35.763Z,11.90
2022-09-16T09:56:19.562Z,11.07
2022-09-16T09:59:03.469Z,10.43
2022-09-16T10:01:33.667Z,11.90
2022-09-16T10:04:15.394Z,13.53
2022-09-16T10:06:47.880Z,12.87
2022-09-16T10:09:20.158Z,11.90
2022-09-16T10:11:55.166Z,9.07
2022-09-16T10:14:33.881Z,10.97
2022-09-16T10:17:06.907Z,11.10
2022-09-16T10:19:54.090Z,16.27
2022-09-16T10:22:29.704Z,10.23
2022-09-16T10:25:02.259Z,9.60
2022-09-16T10:27:36.864Z,10.20
2022-09-16T10:30:18.141Z,8.27
2022-09-16T10:32:59.269Z,8.53
2022-09-16T10:35:35.112Z,8.40
2022-09-16T10:38:15.892Z,10.23
2022-09-16T10:40:55.625Z,7.57
2022-09-16T10:43:28.179Z,12.80
2022-09-16T10:45:58.978Z,9.23
2022-09-16T10:48:33.937Z,4.67
2022-09-16T10:51:09.188Z,5.10
2022-09-16T10:53:44.395Z,6.47
2022-09-16T10:56:23.727Z,11.60
2022-09-16T10:59:06.106Z,10.97
2022-09-16T11:01:48.701Z,12.77
2022-09-16T11:04:46.901Z,5.43
2022-09-16T11:07:37.486Z,6.73
2022-09-16T11:10:20.335Z,9.10
2022-09-16T11:13:23.605Z,6.13
2022-09-16T11:16:11.709Z,7.60
2022-09-16T11:18:58.973Z,7.73
2022-09-16T11:21:56.988Z,5.80
2022-09-16T11:25:08.190Z,5.40
2022-09-16T11:27:51.886Z,5.90
2022-09-16T11:30:24.945Z,7.13
2022-09-16T11:33:22.362Z,11.90
2022-09-16T11:36:34.329Z,10.33
2022-09-16T11:39:23.758Z,8.97
2022-09-16T11:42:07.050Z,8.00
2022-09-16T11:44:49.436Z,7.17
2022-09-16T11:47:51.735Z,5.73
2022-09-16T11:50:43.248Z,5.67
2022-09-16T11:53:44.120Z,6.93
2022-09-16T11:56:21.500Z,6.93
2022-09-16T11:59:00.137Z,6.90
2022-09-16T12:01:40.252Z,8.03
2022-09-16T12:04:18.912Z,6.30
2022-09-16T12:07:01.210Z,6.53
2022-09-16T12:09:42.366Z,4.77
2022-09-16T12:12:17.544Z,6.30
2022-09-16T12:15:00.894Z,4.90
2022-09-16T12:17:37.531Z,5.63
2022-09-16T12:20:18.301Z,5.30
2022-09-16T12:22:54.614Z,4.77
2022-09-16T12:25:31.473Z,7.50
2022-09-16T12:28:10.496Z,3.90
2022-09-16T12:30:49.326Z,3.37
2022-09-16T12:33:27.032Z,5.17
2022-09-16T12:36:04.277Z,6.40
2022-09-16T12:38:34.667Z,3.30
2022-09-16T12:41:34.687Z,4.53
2022-09-16T12:44:46.298Z,5.50
2022-09-16T12:47:51.728Z,5.30
2022-09-16T12:50:55.236Z,6.37
2022-09-16T12:53:56.371Z,6.23
2022-09-16T12:56:46.294Z,4.50
2022-09-16T12:59:45.107Z,4.63
2022-09-16T13:02:24.188Z,4.07
2022-09-16T13:04:58.942Z,6.07
2022-09-16T13:07:35.316Z,3.83
2022-09-16T13:10:08.749Z,4.57
2022-09-16T13:12:44.010Z,7.17
2022-09-16T13:15:29.902Z,6.43
2022-09-16T13:18:12.665Z,4.50
2022-09-16T13:20:50.649Z,4.60
2022-09-16T13:23:26.543Z,5.40
2022-09-16T13:26:02.570Z,8.07
2022-09-16T13:28:41.761Z,4.60
2022-09-16T13:31:34.349Z,5.80
2022-09-16T13:34:21.140Z,5.30
2022-09-16T13:36:51.375Z,4.70
2022-09-16T13:39:33.692Z,7.87
2022-09-16T13:42:21.096Z,5.80
2022-09-16T13:44:51.508Z,6.10
2022-09-16T13:47:40.339Z,4.77
2022-09-16T13:50:19.460Z,7.23
2022-09-16T13:52:50.678Z,7.40
2022-09-16T13:55:27.678Z,6.40
2022-09-16T13:58:07.079Z,4.67
2022-09-16T14:00:49.979Z,6.40
2022-09-16T14:03:53.231Z,4.30
2022-09-16T14:06:54.770Z,4.67
2022-09-16T14:09:45.973Z,8.03
2022-09-16T14:12:27.382Z,4.50
2022-09-16T14:15:01.106Z,8.20
2022-09-16T14:17:41.890Z,6.50
2022-09-16T14:20:18.975Z,6.20
2022-09-16T14:23:05.093Z,7.53
2022-09-16T14:25:39.105Z,5.87
2022-09-16T14:28:24.157Z,4.97
2022-09-16T14:30:58.194Z,8.33
2022-09-16T14:33:33.859Z,6.97
2022-09-16T14:36:13.581Z,6.00
2022-09-16T14:38:52.265Z,6.70
2022-09-16T14:41:29.716Z,4.43
2022-09-16T14:44:11.502Z,5.10
2022-09-16T14:46:47.883Z,6.70
2022-09-16T14:49:20.185Z,5.40
2022-09-16T14:51:57.868Z,4.23
2022-09-16T14:54:31.227Z,7.73
2022-09-16T14:57:03.438Z,5.03
2022-09-16T14:59:38.153Z,5.50
2022-09-16T15:02:19.600Z,4.00
2022-09-16T15:04:56.884Z,5.30
2022-09-16T15:07:46.028Z,4.10
2022-09-16T15:10:49.976Z,6.33
2022-09-16T15:13:27.028Z,5.30
2022-09-16T15:16:02.577Z,4.33
2022-09-16T15:18:36.298Z,6.37
2022-09-16T15:21:13.328Z,5.73
2022-09-16T15:23:50.858Z,5.40
2022-09-16T15:26:27.367Z,6.53
2022-09-16T15:29:01.352Z,4.93
2022-09-16T15:31:40.440Z,5.07
2022-09-16T15:34:26.701Z,4.13
2022-09-16T15:37:05.264Z,4.83
2022-09-16T15:39:37.799Z,6.10
2022-09-16T15:42:20.554Z,5.20
2022-09-16T15:44:53.815Z,7.77
2022-09-16T15:47:29.004Z,4.20
2022-09-16T15:50:05.104Z,4.37
2022-09-16T15:52:51.833Z,6.70
2022-09-16T15:55:37.979Z,9.67
2022-09-16T15:58:20.263Z,4.57
2022-09-16T16:01:03.436Z,4.27
2022-09-16T16:03:40.363Z,6.87
2022-09-16T16:06:10.425Z,10.30
2022-09-16T16:08:46.054Z,5.70
2022-09-16T16:11:19.253Z,8.93
2022-09-16T16:13:53.232Z,6.90
2022-09-16T16:16:23.585Z,4.73
2022-09-16T16:18:53.649Z,4.67
2022-09-16T16:21:23.628Z,4.20
2022-09-16T16:23:53.932Z,4.37
2022-09-16T16:26:24.838Z,4.63
2022-09-16T16:28:57.311Z,8.60
2022-09-16T16:31:27.367Z,5.00
2022-09-16T16:33:58.102Z,4.20
2022-09-16T16:36:28.193Z,5.90
2022-09-16T16:38:58.248Z,4.77
2022-09-16T16:41:28.318Z,8.40
2022-09-16T16:44:00.786Z,4.43
2022-09-16T16:46:32.689Z,5.50
2022-09-16T16:49:02.796Z,6.63
2022-09-16T16:51:32.765Z,8.73
2022-09-16T16:54:03.635Z,5.83
2022-09-16T16:56:33.658Z,6.07
2022-09-16T16:59:06.176Z,4.70
2022-09-16T17:01:36.203Z,4.20
2022-09-16T17:04:07.347Z,7.50
2022-09-16T17:06:38.603Z,4.37
2022-09-16T17:09:15.889Z,8.10
2022-09-16T17:11:55.597Z,7.43
2022-09-16T17:14:30.971Z,6.30
2022-09-16T17:17:02.706Z,7.43
2022-09-16T17:19:32.818Z,6.77
2022-09-16T17:22:03.100Z,3.60
2022-09-16T17:24:34.721Z,3.80
2022-09-16T17:27:05.086Z,4.80
2022-09-16T17:29:37.640Z,6.50
2022-09-16T17:32:08.182Z,5.43
2022-09-16T17:34:38.080Z,6.30
2022-09-16T17:37:08.527Z,5.80
2022-09-16T17:39:38.697Z,6.40
2022-09-16T17:42:09.194Z,4.87
2022-09-16T17:44:42.585Z,5.70
2022-09-16T17:47:12.721Z,6.93
2022-09-16T17:49:42.670Z,4.30
2022-09-16T17:52:12.586Z,3.47
2022-09-16T17:54:43.084Z,3.13
2022-09-16T17:57:13.051Z,3.90
2022-09-16T17:59:45.553Z,4.33
2022-09-16T18:02:15.840Z,4.47
2022-09-16T18:04:47.888Z,6.30
2022-09-16T18:07:17.958Z,4.00
2022-09-16T18:09:47.961Z,3.40
2022-09-16T18:12:17.990Z,4.87
2022-09-16T18:14:50.518Z,8.77
2022-09-16T18:17:20.452Z,6.30
2022-09-16T18:19:50.451Z,3.50
2022-09-16T18:22:20.370Z,6.50
2022-09-16T18:24:50.571Z,7.20
2022-09-16T18:27:20.613Z,4.47
2022-09-16T18:29:53.282Z,4.40
2022-09-16T18:32:23.228Z,5.57
2022-09-16T18:34:53.658Z,5.50
2022-09-16T18:37:24.369Z,7.33
2022-09-16T18:39:54.363Z,4.37
2022-09-16T18:42:24.310Z,7.90
2022-09-16T18:44:56.787Z,6.23
2022-09-16T18:47:26.813Z,4.93
2022-09-16T18:49:56.747Z,7.30
2022-09-16T18:52:26.810Z,10.00
2022-09-16T18:54:57.215Z,5.47
2022-09-16T18:57:27.372Z,4.80
2022-09-16T18:59:59.893Z,4.57
2022-09-16T19:02:29.943Z,7.00
2022-09-16T19:05:00.052Z,9.10
2022-09-16T19:07:30.165Z,7.23
2022-09-16T19:10:00.135Z,8.07
2022-09-16T19:12:30.142Z,8.60
2022-09-16T19:15:02.617Z,8.50
2022-09-16T19:17:33.179Z,8.20
2022-09-16T19:20:03.346Z,10.00
2022-09-16T19:22:33.251Z,8.60
2022-09-16T19:25:03.198Z,11.47
2022-09-16T19:27:33.856Z,17.33
2022-09-16T19:30:07.743Z,8.80
2022-09-16T19:32:38.093Z,6.80
2022-09-16T19:35:10.418Z,4.47
2022-09-16T19:37:40.432Z,6.00
2022-09-16T19:40:11.852Z,5.67
2022-09-16T19:42:41.905Z,6.00
2022-09-16T19:45:14.492Z,3.77
2022-09-16T19:47:44.588Z,5.40
2022-09-16T19:50:14.676Z,12.13
2022-09-16T19:52:44.638Z,5.60
2022-09-16T19:55:14.563Z,6.60
2022-09-16T19:57:44.523Z,7.90
2022-09-16T20:00:18.346Z,6.33
2022-09-16T20:02:48.882Z,5.83
2022-09-16T20:05:19.081Z,3.27
2022-09-16T20:07:49.019Z,6.70
2022-09-16T20:10:19.250Z,5.53
2022-09-16T20:12:49.164Z,5.83
2022-09-16T20:15:22.416Z,5.87
2022-09-16T20:17:52.343Z,3.30
2022-09-16T20:20:22.603Z,4.57
2022-09-16T20:22:52.535Z,3.57
2022-09-16T20:25:23.694Z,3.67
2022-09-16T20:27:53.761Z,3.53
2022-09-16T20:30:26.349Z,3.10
2022-09-16T20:32:56.320Z,5.70
2022-09-16T20:35:26.294Z,4.00
2022-09-16T20:37:56.390Z,5.87
2022-09-16T20:40:26.472Z,7.10
2022-09-16T20:42:56.501Z,3.80
2022-09-16T20:45:29.235Z,4.43
2022-09-16T20:47:59.329Z,3.63
2022-09-16T20:50:29.334Z,4.97
2022-09-16T20:52:59.342Z,4.27
2022-09-16T20:55:29.492Z,6.40
2022-09-16T20:57:59.452Z,3.93
2022-09-16T21:00:33.708Z,5.37
2022-09-16T21:03:03.652Z,4.73
2022-09-16T21:05:33.602Z,7.33
2022-09-16T21:08:03.844Z,3.67
2022-09-16T21:10:36.060Z,6.23
2022-09-16T21:13:06.587Z,4.90
2022-09-16T21:15:39.101Z,4.03
2022-09-16T21:18:09.768Z,3.57
2022-09-16T21:20:41.246Z,6.30
2022-09-16T21:23:11.227Z,4.10
2022-09-16T21:25:41.929Z,3.93
2022-09-16T21:28:11.870Z,3.53
2022-09-16T21:30:44.340Z,4.03
2022-09-16T21:33:17.833Z,6.00
2022-09-16T21:35:54.685Z,4.60
2022-09-16T21:38:24.795Z,3.50
2022-09-16T21:41:00.015Z,5.93
2022-09-16T21:43:33.450Z,4.70
2022-09-16T21:46:06.629Z,5.00
2022-09-16T21:48:37.562Z,5.40
2022-09-16T21:51:10.693Z,4.10
2022-09-16T21:53:42.669Z,6.60
2022-09-16T21:56:15.705Z,4.13
2022-09-16T21:58:46.263Z,4.40
2022-09-16T22:01:22.193Z,5.93
2022-09-16T22:04:02.580Z,6.00
2022-09-16T22:06:33.458Z,4.40
2022-09-16T22:09:07.799Z,3.10
2022-09-16T22:11:40.890Z,3.03
2022-09-16T22:14:11.739Z,3.77
2022-09-16T22:16:44.659Z,4.40
2022-09-16T22:19:20.728Z,3.17
2022-09-16T22:21:53.162Z,3.60
2022-09-16T22:24:23.546Z,3.97
2022-09-16T22:26:54.639Z,4.27
2022-09-16T22:29:24.576Z,4.33
2022-09-16T22:31:57.213Z,2.37
2022-09-16T22:34:27.140Z,3.60
2022-09-16T22:36:57.092Z,4.90
2022-09-16T22:39:27.012Z,3.20
2022-09-16T22:41:57.047Z,2.87
2022-09-16T22:44:27.091Z,3.07
2022-09-16T22:46:59.621Z,5.70
2022-09-16T22:49:29.553Z,4.20
2022-09-16T22:51:59.522Z,3.50
2022-09-16T22:54:29.750Z,2.60
2022-09-16T22:56:59.644Z,3.17
2022-09-16T22:59:30.559Z,3.20
2022-09-16T23:02:03.310Z,4.00
2022-09-16T23:04:33.693Z,3.57
2022-09-16T23:07:03.869Z,2.87
2022-09-16T23:09:35.792Z,2.80
2022-09-16T23:12:07.367Z,4.87
2022-09-16T23:14:37.285Z,3.03
2022-09-16T23:17:09.830Z,4.93
2022-09-16T23:19:39.752Z,2.90
2022-09-16T23:22:09.908Z,3.13
2022-09-16T23:24:39.955Z,4.13
2022-09-16T23:27:09.873Z,3.00
2022-09-16T23:29:39.796Z,3.90
2022-09-16T23:32:12.348Z,2.87
2022-09-16T23:34:42.341Z,2.50
2022-09-16T23:37:12.358Z,3.60
2022-09-16T23:39:42.298Z,4.97
2022-09-16T23:42:12.941Z,3.13
2022-09-16T23:44:42.962Z,3.30
2022-09-16T23:47:15.594Z,2.40
2022-09-16T23:49:45.554Z,2.80
2022-09-16T23:52:15.481Z,2.47
2022-09-16T23:54:45.697Z,2.57
2022-09-16T23:57:15.679Z,2.43
2022-09-16T23:59:45.680Z,2.30
